sensor_id;sensor_type;location;lat;lon;timestamp;pressure;altitude;pressure_sealevel;temperature;humidity
74708;BME280;63360;50.104;8.074;2022-12-17T00:01:36;97554.06;;;-6.86;100.00
74708;BME280;63360;50.104;8.074;2022-12-17T00:04:21;97542.06;;;-6.78;100.00
74708;BME280;63360;50.104;8.074;2022-12-17T00:07:06;97551.81;;;-6.74;100.00
74708;BME280;63360;50.104;8.074;2022-12-17T00:09:51;97546.31;;;-6.78;100.00
74708;BME280;63360;50.104;8.074;2022-12-17T00:12:36;97556.28;;;-6.70;100.00
74708;BME280;63360;50.104;8.074;2022-12-17T00:15:21;97545.97;;;-6.75;100.00
74708;BME280;63360;50.104;8.074;2022-12-17T00:18:07;97559.25;;;-6.66;100.00
74708;BME280;63360;50.104;8.074;2022-12-17T00:20:53;97551.84;;;-6.68;100.00
74708;BME280;63360;50.104;8.074;2022-12-17T00:23:38;97569.47;;;-6.47;100.00
74708;BME280;63360;50.104;8.074;2022-12-17T00:26:24;97564.97;;;-6.51;100.00
74708;BME280;63360;50.104;8.074;2022-12-17T00:29:09;97559.09;;;-6.58;100.00
74708;BME280;63360;50.104;8.074;2022-12-17T00:31:54;97569.47;;;-6.47;100.00
74708;BME280;63360;50.104;8.074;2022-12-17T00:34:38;97580.97;;;-6.44;100.00
74708;BME280;63360;50.104;8.074;2022-12-17T00:37:23;97567.84;;;-6.54;100.00
74708;BME280;63360;50.104;8.074;2022-12-17T00:40:09;97574.63;;;-6.61;100.00
74708;BME280;63360;50.104;8.074;2022-12-17T00:43:11;97576.66;;;-6.50;100.00
74708;BME280;63360;50.104;8.074;2022-12-17T00:45:56;97583.72;;;-6.39;100.00
74708;BME280;63360;50.104;8.074;2022-12-17T00:48:42;97593.47;;;-6.36;100.00
74708;BME280;63360;50.104;8.074;2022-12-17T00:51:28;97596.97;;;-6.37;100.00
74708;BME280;63360;50.104;8.074;2022-12-17T00:54:13;97591.13;;;-6.38;100.00
74708;BME280;63360;50.104;8.074;2022-12-17T00:56:57;97580.34;;;-6.46;100.00
74708;BME280;63360;50.104;8.074;2022-12-17T00:59:42;97583.50;;;-6.44;100.00
74708;BME280;63360;50.104;8.074;2022-12-17T01:02:27;97596.69;;;-6.49;100.00
74708;BME280;63360;50.104;8.074;2022-12-17T01:05:13;97599.22;;;-6.49;100.00
74708;BME280;63360;50.104;8.074;2022-12-17T01:08:06;97598.78;;;-6.59;100.00
74708;BME280;63360;50.104;8.074;2022-12-17T01:10:51;97606.38;;;-6.59;100.00
74708;BME280;63360;50.104;8.074;2022-12-17T01:13:36;97606.38;;;-6.59;100.00
74708;BME280;63360;50.104;8.074;2022-12-17T01:16:21;97611.00;;;-6.62;100.00
74708;BME280;63360;50.104;8.074;2022-12-17T01:19:06;97608.09;;;-6.66;100.00
74708;BME280;63360;50.104;8.074;2022-12-17T01:21:51;97630.28;;;-6.61;100.00
74708;BME280;63360;50.104;8.074;2022-12-17T01:24:36;97623.44;;;-6.67;100.00
74708;BME280;63360;50.104;8.074;2022-12-17T01:27:21;97628.09;;;-6.71;100.00
74708;BME280;63360;50.104;8.074;2022-12-17T01:30:06;97627.81;;;-6.83;100.00
74708;BME280;63360;50.104;8.074;2022-12-17T01:32:51;97633.59;;;-6.89;100.00
74708;BME280;63360;50.104;8.074;2022-12-17T01:35:36;97615.63;;;-7.00;100.00
74708;BME280;63360;50.104;8.074;2022-12-17T01:38:21;97634.59;;;-7.11;100.00
74708;BME280;63360;50.104;8.074;2022-12-17T01:41:07;97628.09;;;-7.20;100.00
74708;BME280;63360;50.104;8.074;2022-12-17T01:43:52;97629.56;;;-7.32;100.00
74708;BME280;63360;50.104;8.074;2022-12-17T01:46:40;97648.22;;;-7.48;100.00
74708;BME280;63360;50.104;8.074;2022-12-17T01:49:30;97641.31;;;-7.60;100.00
74708;BME280;63360;50.104;8.074;2022-12-17T01:52:15;97643.34;;;-7.70;100.00
74708;BME280;63360;50.104;8.074;2022-12-17T01:55:02;97651.03;;;-7.78;100.00
74708;BME280;63360;50.104;8.074;2022-12-17T01:57:48;97642.56;;;-8.07;100.00
74708;BME280;63360;50.104;8.074;2022-12-17T02:00:33;97644.63;;;-8.10;100.00
74708;BME280;63360;50.104;8.074;2022-12-17T02:03:18;97634.66;;;-8.33;100.00
74708;BME280;63360;50.104;8.074;2022-12-17T02:06:16;97649.47;;;-8.44;100.00
74708;BME280;63360;50.104;8.074;2022-12-17T02:09:24;97645.72;;;-8.34;100.00
74708;BME280;63360;50.104;8.074;2022-12-17T02:15:30;97658.94;;;-8.46;100.00
74708;BME280;63360;50.104;8.074;2022-12-17T02:18:24;97654.06;;;-8.48;100.00
74708;BME280;63360;50.104;8.074;2022-12-17T02:21:12;97657.63;;;-8.42;100.00
74708;BME280;63360;50.104;8.074;2022-12-17T02:26:58;97657.19;;;-8.60;100.00
74708;BME280;63360;50.104;8.074;2022-12-17T02:29:48;97658.38;;;-8.56;100.00
74708;BME280;63360;50.104;8.074;2022-12-17T02:32:36;97658.34;;;-8.86;98.34
74708;BME280;63360;50.104;8.074;2022-12-17T02:35:32;97652.56;;;-9.09;97.84
74708;BME280;63360;50.104;8.074;2022-12-17T02:38:24;97673.44;;;-9.00;100.00
74708;BME280;63360;50.104;8.074;2022-12-17T02:41:18;97664.34;;;-9.09;99.48
74708;BME280;63360;50.104;8.074;2022-12-17T02:44:06;97665.41;;;-9.04;99.57
74708;BME280;63360;50.104;8.074;2022-12-17T02:46:53;97653.00;;;-9.28;99.21
74708;BME280;63360;50.104;8.074;2022-12-17T02:49:39;97654.44;;;-9.34;100.00
74708;BME280;63360;50.104;8.074;2022-12-17T02:52:24;97675.22;;;-9.09;100.00
74708;BME280;63360;50.104;8.074;2022-12-17T02:55:10;97663.13;;;-9.13;100.00
74708;BME280;63360;50.104;8.074;2022-12-17T02:57:55;97674.00;;;-9.13;99.49
74708;BME280;63360;50.104;8.074;2022-12-17T03:00:40;97680.03;;;-9.22;98.21
74708;BME280;63360;50.104;8.074;2022-12-17T03:03:25;97681.50;;;-9.28;99.23
74708;BME280;63360;50.104;8.074;2022-12-17T03:06:15;97677.81;;;-9.40;99.44
74708;BME280;63360;50.104;8.074;2022-12-17T03:09:10;97676.59;;;-9.52;98.16
74708;BME280;63360;50.104;8.074;2022-12-17T03:11:55;97687.31;;;-9.58;98.92
74708;BME280;63360;50.104;8.074;2022-12-17T03:14:40;97672.25;;;-9.66;98.56
74708;BME280;63360;50.104;8.074;2022-12-17T03:17:24;97688.44;;;-9.60;98.36
74708;BME280;63360;50.104;8.074;2022-12-17T03:20:09;97672.19;;;-9.80;97.75
74708;BME280;63360;50.104;8.074;2022-12-17T03:23:02;97692.63;;;-9.75;98.16
74708;BME280;63360;50.104;8.074;2022-12-17T03:25:47;97679.25;;;-9.76;99.21
74708;BME280;63360;50.104;8.074;2022-12-17T03:28:32;97681.31;;;-9.79;99.00
74708;BME280;63360;50.104;8.074;2022-12-17T03:31:17;97700.03;;;-9.74;97.52
74708;BME280;63360;50.104;8.074;2022-12-17T03:34:03;97699.19;;;-9.66;99.46
74708;BME280;63360;50.104;8.074;2022-12-17T03:36:48;97699.53;;;-9.69;98.89
74708;BME280;63360;50.104;8.074;2022-12-17T03:39:33;97688.78;;;-9.63;98.99
74708;BME280;63360;50.104;8.074;2022-12-17T03:42:18;97704.50;;;-9.61;98.03
74708;BME280;63360;50.104;8.074;2022-12-17T03:45:03;97699.53;;;-9.69;98.58
74708;BME280;63360;50.104;8.074;2022-12-17T03:47:48;97706.53;;;-9.57;99.42
74708;BME280;63360;50.104;8.074;2022-12-17T03:50:32;97698.72;;;-9.70;99.66
74708;BME280;63360;50.104;8.074;2022-12-17T03:53:17;97687.03;;;-9.63;100.00
74708;BME280;63360;50.104;8.074;2022-12-17T03:56:03;97701.78;;;-9.52;100.00
74708;BME280;63360;50.104;8.074;2022-12-17T03:58:47;97695.06;;;-9.59;100.00
74708;BME280;63360;50.104;8.074;2022-12-17T04:01:32;97683.91;;;-9.65;100.00
74708;BME280;63360;50.104;8.074;2022-12-17T04:04:17;97691.13;;;-9.62;100.00
74708;BME280;63360;50.104;8.074;2022-12-17T04:07:02;97697.06;;;-9.55;100.00
74708;BME280;63360;50.104;8.074;2022-12-17T04:09:47;97689.44;;;-9.69;100.00
74708;BME280;63360;50.104;8.074;2022-12-17T04:12:32;97695.41;;;-9.70;100.00
74708;BME280;63360;50.104;8.074;2022-12-17T04:15:17;97704.88;;;-9.72;99.63
74708;BME280;63360;50.104;8.074;2022-12-17T04:18:02;97707.50;;;-9.66;100.00
74708;BME280;63360;50.104;8.074;2022-12-17T04:20:47;97723.47;;;-9.81;99.84
74708;BME280;63360;50.104;8.074;2022-12-17T04:23:32;97722.56;;;-9.89;99.81
74708;BME280;63360;50.104;8.074;2022-12-17T04:26:16;97711.06;;;-9.83;98.79
74708;BME280;63360;50.104;8.074;2022-12-17T04:29:01;97712.50;;;-9.89;98.74
74708;BME280;63360;50.104;8.074;2022-12-17T04:31:47;97713.34;;;-10.04;98.79
74708;BME280;63360;50.104;8.074;2022-12-17T04:34:32;97718.50;;;-10.06;99.78
74708;BME280;63360;50.104;8.074;2022-12-17T04:37:16;97719.78;;;-10.02;99.82
74708;BME280;63360;50.104;8.074;2022-12-17T04:40:02;97711.75;;;-10.05;99.56
74708;BME280;63360;50.104;8.074;2022-12-17T04:43:05;97726.22;;;-10.07;97.69
74708;BME280;63360;50.104;8.074;2022-12-17T04:45:50;97717.00;;;-10.15;98.47
74708;BME280;63360;50.104;8.074;2022-12-17T04:48:35;97740.28;;;-10.21;98.42
74708;BME280;63360;50.104;8.074;2022-12-17T04:51:20;97721.44;;;-10.25;100.00
74708;BME280;63360;50.104;8.074;2022-12-17T04:54:04;97737.75;;;-10.13;100.00
74708;BME280;63360;50.104;8.074;2022-12-17T04:56:49;97744.94;;;-10.02;99.65
74708;BME280;63360;50.104;8.074;2022-12-17T04:59:34;97742.25;;;-10.08;100.00
74708;BME280;63360;50.104;8.074;2022-12-17T05:02:30;97731.47;;;-10.17;98.98
74708;BME280;63360;50.104;8.074;2022-12-17T05:05:15;97724.72;;;-10.24;98.85
74708;BME280;63360;50.104;8.074;2022-12-17T05:08:00;97737.94;;;-10.22;98.83
74708;BME280;63360;50.104;8.074;2022-12-17T05:10:45;97755.66;;;-10.16;98.83
74708;BME280;63360;50.104;8.074;2022-12-17T05:13:30;97743.59;;;-10.20;100.00
74708;BME280;63360;50.104;8.074;2022-12-17T05:16:14;97746.22;;;-10.14;100.00
74708;BME280;63360;50.104;8.074;2022-12-17T05:18:59;97758.00;;;-10.06;99.40
74708;BME280;63360;50.104;8.074;2022-12-17T05:21:44;97745.31;;;-10.21;99.34
74708;BME280;63360;50.104;8.074;2022-12-17T05:24:29;97758.69;;;-10.28;100.00
74708;BME280;63360;50.104;8.074;2022-12-17T05:27:13;97755.69;;;-10.32;100.00
74708;BME280;63360;50.104;8.074;2022-12-17T05:29:58;97757.13;;;-10.37;100.00
74708;BME280;63360;50.104;8.074;2022-12-17T05:32:43;97753.66;;;-10.44;100.00
74708;BME280;63360;50.104;8.074;2022-12-17T05:35:28;97774.72;;;-10.45;97.16
74708;BME280;63360;50.104;8.074;2022-12-17T05:38:12;97771.88;;;-10.34;100.00
74708;BME280;63360;50.104;8.074;2022-12-17T05:40:58;97775.50;;;-10.45;100.00
74708;BME280;63360;50.104;8.074;2022-12-17T05:43:43;97772.38;;;-10.47;100.00
74708;BME280;63360;50.104;8.074;2022-12-17T05:46:28;97764.84;;;-10.47;100.00
74708;BME280;63360;50.104;8.074;2022-12-17T05:49:14;97772.66;;;-10.26;100.00
74708;BME280;63360;50.104;8.074;2022-12-17T05:51:59;97767.16;;;-10.37;100.00
74708;BME280;63360;50.104;8.074;2022-12-17T05:54:43;97767.00;;;-10.20;100.00
74708;BME280;63360;50.104;8.074;2022-12-17T05:57:28;97780.03;;;-10.16;100.00
74708;BME280;63360;50.104;8.074;2022-12-17T06:00:21;97790.44;;;-10.27;100.00
74708;BME280;63360;50.104;8.074;2022-12-17T06:03:07;97791.19;;;-10.19;100.00
74708;BME280;63360;50.104;8.074;2022-12-17T06:05:54;97780.53;;;-10.45;99.35
74708;BME280;63360;50.104;8.074;2022-12-17T06:08:39;97791.84;;;-10.25;100.00
74708;BME280;63360;50.104;8.074;2022-12-17T06:11:24;97800.50;;;-10.27;100.00
74708;BME280;63360;50.104;8.074;2022-12-17T06:14:09;97808.50;;;-10.24;100.00
74708;BME280;63360;50.104;8.074;2022-12-17T06:16:54;97811.31;;;-10.27;100.00
74708;BME280;63360;50.104;8.074;2022-12-17T06:19:39;97818.88;;;-10.19;100.00
74708;BME280;63360;50.104;8.074;2022-12-17T06:22:24;97801.13;;;-10.25;100.00
74708;BME280;63360;50.104;8.074;2022-12-17T06:25:09;97808.03;;;-10.19;100.00
74708;BME280;63360;50.104;8.074;2022-12-17T06:27:58;97815.59;;;-10.19;100.00
74708;BME280;63360;50.104;8.074;2022-12-17T06:30:49;97821.69;;;-10.14;100.00
74708;BME280;63360;50.104;8.074;2022-12-17T06:33:35;97833.03;;;-10.34;98.59
74708;BME280;63360;50.104;8.074;2022-12-17T06:36:20;97833.50;;;-10.46;97.64
74708;BME280;63360;50.104;8.074;2022-12-17T06:39:06;97821.53;;;-10.61;99.52
74708;BME280;63360;50.104;8.074;2022-12-17T06:41:52;97816.69;;;-10.62;100.00
74708;BME280;63360;50.104;8.074;2022-12-17T06:44:37;97827.50;;;-10.62;100.00
74708;BME280;63360;50.104;8.074;2022-12-17T06:47:22;97815.25;;;-10.81;98.49
74708;BME280;63360;50.104;8.074;2022-12-17T06:50:07;97839.31;;;-10.54;100.00
74708;BME280;63360;50.104;8.074;2022-12-17T06:53:03;97851.25;;;-10.40;99.94
74708;BME280;63360;50.104;8.074;2022-12-17T06:55:48;97831.78;;;-10.54;100.00
74708;BME280;63360;50.104;8.074;2022-12-17T06:58:34;97839.44;;;-10.56;100.00
74708;BME280;63360;50.104;8.074;2022-12-17T07:01:20;97863.19;;;-10.34;100.00
74708;BME280;63360;50.104;8.074;2022-12-17T07:04:05;97858.78;;;-10.40;100.00
74708;BME280;63360;50.104;8.074;2022-12-17T07:06:50;97862.09;;;-10.39;100.00
74708;BME280;63360;50.104;8.074;2022-12-17T07:09:35;97863.50;;;-10.53;100.00
74708;BME280;63360;50.104;8.074;2022-12-17T07:12:22;97869.31;;;-10.53;100.00
74708;BME280;63360;50.104;8.074;2022-12-17T07:15:07;97880.28;;;-10.54;100.00
74708;BME280;63360;50.104;8.074;2022-12-17T07:17:57;97871.66;;;-10.59;100.00
74708;BME280;63360;50.104;8.074;2022-12-17T07:20:43;97901.38;;;-10.46;100.00
74708;BME280;63360;50.104;8.074;2022-12-17T07:23:28;97909.53;;;-10.53;100.00
74708;BME280;63360;50.104;8.074;2022-12-17T07:26:14;97886.28;;;-10.55;100.00
74708;BME280;63360;50.104;8.074;2022-12-17T07:28:59;97892.41;;;-10.57;100.00
74708;BME280;63360;50.104;8.074;2022-12-17T07:31:44;97894.13;;;-10.58;100.00
74708;BME280;63360;50.104;8.074;2022-12-17T07:34:28;97895.88;;;-10.50;100.00
74708;BME280;63360;50.104;8.074;2022-12-17T07:37:13;97902.59;;;-10.59;100.00
74708;BME280;63360;50.104;8.074;2022-12-17T07:39:58;97888.34;;;-10.42;100.00
74708;BME280;63360;50.104;8.074;2022-12-17T07:42:43;97907.34;;;-10.39;100.00
74708;BME280;63360;50.104;8.074;2022-12-17T07:45:28;97915.66;;;-10.47;100.00
74708;BME280;63360;50.104;8.074;2022-12-17T07:48:13;97908.56;;;-10.60;100.00
74708;BME280;63360;50.104;8.074;2022-12-17T07:50:57;97912.97;;;-10.54;100.00
74708;BME280;63360;50.104;8.074;2022-12-17T07:53:42;97918.69;;;-10.35;100.00
74708;BME280;63360;50.104;8.074;2022-12-17T07:56:27;97915.19;;;-10.42;100.00
74708;BME280;63360;50.104;8.074;2022-12-17T07:59:11;97927.13;;;-10.44;100.00
74708;BME280;63360;50.104;8.074;2022-12-17T08:01:56;97923.03;;;-10.54;100.00
74708;BME280;63360;50.104;8.074;2022-12-17T08:04:41;97930.31;;;-10.26;100.00
74708;BME280;63360;50.104;8.074;2022-12-17T08:07:26;97930.47;;;-10.36;100.00
74708;BME280;63360;50.104;8.074;2022-12-17T08:10:11;97935.63;;;-10.37;99.92
74708;BME280;63360;50.104;8.074;2022-12-17T08:13:03;97940.19;;;-10.41;100.00
74708;BME280;63360;50.104;8.074;2022-12-17T08:15:51;97927.63;;;-10.41;99.31
74708;BME280;63360;50.104;8.074;2022-12-17T08:18:36;97939.56;;;-10.35;98.99
74708;BME280;63360;50.104;8.074;2022-12-17T08:21:21;97937.22;;;-10.36;100.00
74708;BME280;63360;50.104;8.074;2022-12-17T08:24:06;97942.75;;;-10.25;100.00
74708;BME280;63360;50.104;8.074;2022-12-17T08:26:51;97933.78;;;-10.35;100.00
74708;BME280;63360;50.104;8.074;2022-12-17T08:29:36;97949.03;;;-10.13;100.00
74708;BME280;63360;50.104;8.074;2022-12-17T08:32:22;97948.06;;;-10.12;100.00
74708;BME280;63360;50.104;8.074;2022-12-17T08:35:07;97936.47;;;-10.13;100.00
74708;BME280;63360;50.104;8.074;2022-12-17T08:37:51;97941.94;;;-10.01;100.00
74708;BME280;63360;50.104;8.074;2022-12-17T08:40:37;97943.81;;;-9.79;100.00
74708;BME280;63360;50.104;8.074;2022-12-17T08:43:21;97951.22;;;-9.61;100.00
74708;BME280;63360;50.104;8.074;2022-12-17T08:46:06;97963.63;;;-9.52;100.00
74708;BME280;63360;50.104;8.074;2022-12-17T08:48:51;97961.28;;;-9.53;100.00
74708;BME280;63360;50.104;8.074;2022-12-17T08:51:36;97977.63;;;-9.41;100.00
74708;BME280;63360;50.104;8.074;2022-12-17T08:54:21;97979.84;;;-9.38;100.00
74708;BME280;63360;50.104;8.074;2022-12-17T08:57:06;97983.47;;;-9.41;100.00
74708;BME280;63360;50.104;8.074;2022-12-17T08:59:58;97974.16;;;-9.32;100.00
74708;BME280;63360;50.104;8.074;2022-12-17T09:02:43;97981.81;;;-9.09;100.00
74708;BME280;63360;50.104;8.074;2022-12-17T09:05:29;97978.66;;;-9.03;100.00
74708;BME280;63360;50.104;8.074;2022-12-17T09:08:14;97984.63;;;-8.96;100.00
74708;BME280;63360;50.104;8.074;2022-12-17T09:10:59;97987.41;;;-8.83;100.00
74708;BME280;63360;50.104;8.074;2022-12-17T09:13:44;97977.69;;;-8.86;100.00
74708;BME280;63360;50.104;8.074;2022-12-17T09:16:29;97967.41;;;-8.77;100.00
74708;BME280;63360;50.104;8.074;2022-12-17T09:19:14;97987.34;;;-8.59;100.00
74708;BME280;63360;50.104;8.074;2022-12-17T09:21:59;97991.56;;;-8.51;100.00
74708;BME280;63360;50.104;8.074;2022-12-17T09:24:44;97987.44;;;-8.44;100.00
74708;BME280;63360;50.104;8.074;2022-12-17T09:27:29;97980.34;;;-8.41;100.00
74708;BME280;63360;50.104;8.074;2022-12-17T09:30:14;97976.72;;;-8.24;100.00
74708;BME280;63360;50.104;8.074;2022-12-17T09:33:00;97977.47;;;-8.15;100.00
74708;BME280;63360;50.104;8.074;2022-12-17T09:35:45;97986.16;;;-7.95;100.00
74708;BME280;63360;50.104;8.074;2022-12-17T09:38:30;97988.59;;;-7.79;100.00
74708;BME280;63360;50.104;8.074;2022-12-17T09:44:23;97982.91;;;-7.58;100.00
74708;BME280;63360;50.104;8.074;2022-12-17T09:50:28;98003.81;;;-7.27;100.00
74708;BME280;63360;50.104;8.074;2022-12-17T09:53:39;98008.88;;;-7.12;100.00
74708;BME280;63360;50.104;8.074;2022-12-17T09:56:27;98005.94;;;-7.01;100.00
74708;BME280;63360;50.104;8.074;2022-12-17T09:59:27;98010.03;;;-6.86;100.00
74708;BME280;63360;50.104;8.074;2022-12-17T10:02:15;98017.63;;;-6.71;100.00
74708;BME280;63360;50.104;8.074;2022-12-17T10:05:03;97993.81;;;-6.62;100.00
74708;BME280;63360;50.104;8.074;2022-12-17T10:07:50;98002.84;;;-6.38;100.00
74708;BME280;63360;50.104;8.074;2022-12-17T10:10:42;98011.28;;;-6.17;100.00
74708;BME280;63360;50.104;8.074;2022-12-17T10:13:27;98003.41;;;-6.07;100.00
74708;BME280;63360;50.104;8.074;2022-12-17T10:16:32;98012.19;;;-5.88;100.00
74708;BME280;63360;50.104;8.074;2022-12-17T10:19:28;98013.09;;;-5.68;100.00
74708;BME280;63360;50.104;8.074;2022-12-17T10:22:16;98003.69;;;-5.53;100.00
74708;BME280;63360;50.104;8.074;2022-12-17T10:27:50;98007.84;;;-5.18;100.00
74708;BME280;63360;50.104;8.074;2022-12-17T10:30:35;98013.81;;;-5.04;100.00
74708;BME280;63360;50.104;8.074;2022-12-17T10:33:20;98008.03;;;-4.92;100.00
74708;BME280;63360;50.104;8.074;2022-12-17T10:36:19;98010.25;;;-4.82;100.00
74708;BME280;63360;50.104;8.074;2022-12-17T10:39:05;98019.47;;;-4.74;100.00
74708;BME280;63360;50.104;8.074;2022-12-17T10:41:50;98015.72;;;-4.78;100.00
74708;BME280;63360;50.104;8.074;2022-12-17T10:44:36;98031.78;;;-4.71;100.00
74708;BME280;63360;50.104;8.074;2022-12-17T10:47:26;98017.47;;;-4.79;100.00
74708;BME280;63360;50.104;8.074;2022-12-17T10:50:20;98040.00;;;-4.63;100.00
74708;BME280;63360;50.104;8.074;2022-12-17T10:53:20;98028.38;;;-4.51;100.00
74708;BME280;63360;50.104;8.074;2022-12-17T10:56:06;98032.59;;;-4.23;100.00
74708;BME280;63360;50.104;8.074;2022-12-17T10:59:10;98026.38;;;-4.14;100.00
74708;BME280;63360;50.104;8.074;2022-12-17T11:01:57;98029.97;;;-3.89;98.76
74708;BME280;63360;50.104;8.074;2022-12-17T11:04:52;98036.88;;;-3.70;97.40
74708;BME280;63360;50.104;8.074;2022-12-17T11:07:40;98025.72;;;-3.56;96.58
74708;BME280;63360;50.104;8.074;2022-12-17T11:10:29;98033.00;;;-3.33;95.24
74708;BME280;63360;50.104;8.074;2022-12-17T11:13:28;98037.28;;;-3.08;93.41
74708;BME280;63360;50.104;8.074;2022-12-17T11:16:28;98034.34;;;-3.04;92.79
74708;BME280;63360;50.104;8.074;2022-12-17T11:22:41;98043.34;;;-2.76;90.59
74708;BME280;63360;50.104;8.074;2022-12-17T11:25:36;98029.22;;;-2.72;89.64
74708;BME280;63360;50.104;8.074;2022-12-17T11:28:27;98035.66;;;-2.56;88.53
74708;BME280;63360;50.104;8.074;2022-12-17T11:34:14;98042.28;;;-2.49;87.00
74708;BME280;63360;50.104;8.074;2022-12-17T11:40:11;98044.06;;;-2.42;87.25
74708;BME280;63360;50.104;8.074;2022-12-17T11:46:34;98036.44;;;-2.62;89.08
74708;BME280;63360;50.104;8.074;2022-12-17T11:58:55;98056.66;;;-2.87;91.38
74708;BME280;63360;50.104;8.074;2022-12-17T12:11:03;98055.91;;;-3.20;92.51
74708;BME280;63360;50.104;8.074;2022-12-17T12:26:14;98046.69;;;-3.34;93.26
74708;BME280;63360;50.104;8.074;2022-12-17T12:29:23;98058.22;;;-3.32;93.45
74708;BME280;63360;50.104;8.074;2022-12-17T12:32:19;98055.09;;;-3.34;93.16
74708;BME280;63360;50.104;8.074;2022-12-17T12:35:12;98053.91;;;-3.38;93.08
74708;BME280;63360;50.104;8.074;2022-12-17T12:37:59;98037.47;;;-3.55;93.01
74708;BME280;63360;50.104;8.074;2022-12-17T12:40:51;98054.28;;;-3.54;93.66
74708;BME280;63360;50.104;8.074;2022-12-17T12:43:42;98054.69;;;-3.50;94.37
74708;BME280;63360;50.104;8.074;2022-12-17T12:46:37;98055.69;;;-3.51;93.81
74708;BME280;63360;50.104;8.074;2022-12-17T12:49:28;98056.44;;;-3.51;93.48
74708;BME280;63360;50.104;8.074;2022-12-17T12:52:21;98047.63;;;-3.61;94.26
74708;BME280;63360;50.104;8.074;2022-12-17T12:55:07;98052.31;;;-3.58;94.74
74708;BME280;63360;50.104;8.074;2022-12-17T12:58:05;98055.84;;;-3.59;93.66
74708;BME280;63360;50.104;8.074;2022-12-17T13:01:06;98049.41;;;-3.62;94.17
74708;BME280;63360;50.104;8.074;2022-12-17T13:03:54;98045.47;;;-3.64;94.28
74708;BME280;63360;50.104;8.074;2022-12-17T13:06:41;98045.66;;;-3.66;93.56
74708;BME280;63360;50.104;8.074;2022-12-17T13:11:45;98041.53;;;-3.74;93.70
74708;BME280;63360;50.104;8.074;2022-12-17T13:16:51;98039.97;;;-3.81;92.26
74708;BME280;63360;50.104;8.074;2022-12-17T13:19:37;98024.31;;;-3.85;93.29
74708;BME280;63360;50.104;8.074;2022-12-17T13:24:51;98029.78;;;-3.88;92.67
74708;BME280;63360;50.104;8.074;2022-12-17T13:30:21;98038.38;;;-3.89;92.73
74708;BME280;63360;50.104;8.074;2022-12-17T13:38:18;98025.84;;;-3.97;91.75
74708;BME280;63360;50.104;8.074;2022-12-17T13:43:44;98019.97;;;-4.04;94.29
74708;BME280;63360;50.104;8.074;2022-12-17T13:46:33;98036.56;;;-4.01;94.05
74708;BME280;63360;50.104;8.074;2022-12-17T13:49:04;98034.19;;;-4.09;93.82
74708;BME280;63360;50.104;8.074;2022-12-17T13:51:33;98044.97;;;-4.07;94.01
74708;BME280;63360;50.104;8.074;2022-12-17T13:54:02;98039.09;;;-4.08;94.65
74708;BME280;63360;50.104;8.074;2022-12-17T13:56:35;98035.94;;;-4.16;94.46
74708;BME280;63360;50.104;8.074;2022-12-17T13:59:03;98039.66;;;-4.12;94.86
74708;BME280;63360;50.104;8.074;2022-12-17T14:01:43;98039.06;;;-4.14;95.68
74708;BME280;63360;50.104;8.074;2022-12-17T14:04:21;98033.56;;;-4.24;96.02
74708;BME280;63360;50.104;8.074;2022-12-17T14:06:48;98036.69;;;-4.22;95.34
74708;BME280;63360;50.104;8.074;2022-12-17T14:09:16;98038.84;;;-4.26;95.94
74708;BME280;63360;50.104;8.074;2022-12-17T14:11:43;98041.38;;;-4.26;96.34
74708;BME280;63360;50.104;8.074;2022-12-17T14:14:40;98050.19;;;-4.22;96.52
74708;BME280;63360;50.104;8.074;2022-12-17T14:17:20;98053.09;;;-4.25;97.13
74708;BME280;63360;50.104;8.074;2022-12-17T14:20:09;98053.88;;;-4.24;96.53
74708;BME280;63360;50.104;8.074;2022-12-17T14:22:39;98058.56;;;-4.28;97.05
74708;BME280;63360;50.104;8.074;2022-12-17T14:25:28;98054.84;;;-4.32;95.95
74708;BME280;63360;50.104;8.074;2022-12-17T14:27:59;98050.50;;;-4.38;96.75
74708;BME280;63360;50.104;8.074;2022-12-17T14:30:39;98062.03;;;-4.36;96.20
74708;BME280;63360;50.104;8.074;2022-12-17T14:33:31;98045.94;;;-4.49;95.76
74708;BME280;63360;50.104;8.074;2022-12-17T14:36:05;98052.00;;;-4.50;95.65
74708;BME280;63360;50.104;8.074;2022-12-17T14:38:33;98052.69;;;-4.63;94.92
74708;BME280;63360;50.104;8.074;2022-12-17T14:41:10;98055.03;;;-4.68;96.06
74708;BME280;63360;50.104;8.074;2022-12-17T14:43:57;98067.50;;;-4.73;96.97
74708;BME280;63360;50.104;8.074;2022-12-17T14:46:26;98071.53;;;-4.78;97.39
74708;BME280;63360;50.104;8.074;2022-12-17T14:48:57;98074.22;;;-4.86;98.02
74708;BME280;63360;50.104;8.074;2022-12-17T14:51:38;98070.31;;;-4.89;98.27
74708;BME280;63360;50.104;8.074;2022-12-17T14:54:19;98073.41;;;-4.94;98.48
74708;BME280;63360;50.104;8.074;2022-12-17T14:56:48;98056.72;;;-5.03;98.74
74708;BME280;63360;50.104;8.074;2022-12-17T14:59:35;98069.66;;;-4.98;98.53
74708;BME280;63360;50.104;8.074;2022-12-17T15:02:12;98071.72;;;-5.08;97.45
74708;BME280;63360;50.104;8.074;2022-12-17T15:04:44;98068.16;;;-5.13;97.32
74708;BME280;63360;50.104;8.074;2022-12-17T15:07:13;98076.53;;;-5.19;96.76
74708;BME280;63360;50.104;8.074;2022-12-17T15:09:43;98072.50;;;-5.35;96.68
74708;BME280;63360;50.104;8.074;2022-12-17T15:12:10;98084.31;;;-5.42;97.53
74708;BME280;63360;50.104;8.074;2022-12-17T15:14:36;98084.78;;;-5.53;97.10
74708;BME280;63360;50.104;8.074;2022-12-17T15:17:02;98082.00;;;-5.58;97.48
74708;BME280;63360;50.104;8.074;2022-12-17T15:19:29;98092.84;;;-5.64;97.53
74708;BME280;63360;50.104;8.074;2022-12-17T15:21:55;98080.91;;;-5.70;98.25
74708;BME280;63360;50.104;8.074;2022-12-17T15:24:22;98083.44;;;-5.70;97.91
74708;BME280;63360;50.104;8.074;2022-12-17T15:26:48;98082.72;;;-5.85;97.88
74708;BME280;63360;50.104;8.074;2022-12-17T15:29:15;98081.03;;;-5.99;97.66
74708;BME280;63360;50.104;8.074;2022-12-17T15:31:41;98102.31;;;-5.94;97.29
74708;BME280;63360;50.104;8.074;2022-12-17T15:34:10;98089.31;;;-6.05;97.49
74708;BME280;63360;50.104;8.074;2022-12-17T15:36:36;98101.22;;;-6.21;98.74
74708;BME280;63360;50.104;8.074;2022-12-17T15:39:03;98116.06;;;-6.18;100.00
74708;BME280;63360;50.104;8.074;2022-12-17T15:41:32;98109.41;;;-6.33;98.54
74708;BME280;63360;50.104;8.074;2022-12-17T15:44:17;98120.06;;;-6.38;98.87